Leonardo Da Vinci (Fiumicino) International Airport LIRF

Flugplatz Daten

Name: Leonardo Da Vinci (Fiumicino) International Airport

Ident: LIRF

Lat: 41,80450058

Long: 12,25080013

Platzhöhe: 15 ft

IataCode: FCO

City: Rome

Homepage: http://www.adr.it/portal/portal/adr/Fiumicino/Leonardo_da_vinci/Header_Window?action=2

Metar

2021/12/03 23:20
LIRF 032320Z 03003KT 320V120 CAVOK 07/03 Q1012 NOSIG

Taf

2021/12/03 18:00
TAF LIRF 031700Z 0318/0424 03012KT 9999 SCT030
Gewünschte Webcam nicht vorhanden? Dann fügen Sie eine hinzu. Sie wird dann so schnell wie möglich freigeschaltet
Url: Title: